Tuesday, July 17, 2018, 1:52 AM EDT
Back to Local

KYNG, Youngstown-warren Reg Airprt

Location: Vienna, OH, United States Lat: 41.25
Local Time: 1:52 AM EDT ( 5:52 GMT) Lon: -80.667
Time Zone: US/Eastern Elev: 1197 ft

Show me the last for .
Show Decoded

2018-07-17 00:52 METAR KYNG 170452Z 19006KT 5SM BR FEW002 OVC110 23/22 A2990 RMK AO2 T02280222 $
                 =
2018-07-17 00:13 METAR KYNG 170413Z 18005KT 4SM BR SCT002 BKN120 OVC200 23/22 A2991 RMK AO2
                 T02280222 $ =
2018-07-16 23:51 METAR KYNG 170351Z 19005KT 9SM FEW055 SCT110 OVC200 23/22 A2991 RMK AO2 LTG DSNT
                 E SLP118 T02280222 $ =
2018-07-16 23:07 METAR KYNG 170307Z 25003KT 10SM SCT006 SCT026 BKN055 OVC130 23/22 A2991 RMK AO2
                 LTG DSNT N AND NE T02280222 $ =
2018-07-16 22:51 METAR KYNG 170251Z 00000KT 10SM VCTS BKN006 BKN023 OVC080 23/23 A2992 RMK AO2
                 LTG DSNT N AND NE RAE48 TSE22E49 SLP122 P0000 60000 T02280228 53009 $ =
2018-07-16 22:28 METAR KYNG 170228Z 32006KT 10SM -RA BKN006 OVC024 23/23 A2992 RMK AO2 LTG DSNT
                 NE AND NW TSE22 P0000 T02330228 $ =
2018-07-16 22:04 METAR KYNG 170204Z 32007KT 7SM -TSRA BKN008 BKN025CB OVC055 23/23 A2992 RMK AO2
                 LTG DSNT W-NE FRQ LTGICCA NW-N TS NW-N MOV NE P0000 T02330228 $ =
2018-07-16 21:51 METAR KYNG 170151Z COR 28008KT 10SM -TSRA SCT007 SCT028CB BKN070 OVC160 24/23
                 A2992 RMK AO2 LTG DSNT W-NE RAB41 TSB30 SLP120 FRQ LTGICCA NW-N TS NW-N MOV NE
                 P0000 T02390228 $ =
2018-07-16 21:30 METAR KYNG 170130Z 17005KT 10SM TS SCT035CB BKN055 BKN150 BKN250 24/23 A2990 =
2018-07-16 20:51 METAR KYNG 170051Z 15007KT 10SM FEW025 FEW060 SCT120 BKN250 23/22 A2989 RMK AO2
                 LTG DSNT W AND NW SLP114 CB DSNT NW T02330222 $ =
2018-07-16 19:51 METAR KYNG 162351Z 00000KT 10SM FEW032 SCT060 SCT100 BKN250 24/22 A2989 RMK AO2
                 LTG DSNT NW SLP114 CB DSNT SE T02390222 10328 20228 $ =
2018-07-16 19:08 METAR KYNG 162308Z 11006KT 10SM SCT036 BKN075 BKN250 23/22 A2991 RMK AO2 LTG
                 DSNT NE AND E P0013 T02280217 $ =
2018-07-16 18:23 METAR KYNG 162223Z AUTO 16007KT -TSRA 23/21 A2992 RMK AO2 LTG DSNT NE-SE
                 RAB08B23 P0000 T02330211 $ =
2018-07-16 18:08 METAR KYNG 162208Z 17009KT 140V210 6SM TSRA FEW010 SCT035CB SCT085 BKN250 24/21
                 A2992 RMK AO2 WSHFT 2148 LTG DSNT E-S RAB08 OCNL LTGICCA NE-E TS NE-E MOV NE
                 P0000 T02440206 =
2018-07-16 17:51 METAR KYNG 162151Z 19014G24KT 10SM TS FEW015 SCT050CB SCT090 BKN250 28/21 A2991
                 RMK AO2 LTG DSNT SE AND S TSB43 PRESRR SLP120 OCNL LTGICCA SE-S TS SE-S MOV NE
                 VCSH SE-S T02830211 =
2018-07-16 17:49 METAR KYNG 162149Z 22014G24KT 190V270 10SM TS FEW015 SCT050CB SCT090 BKN250
                 29/22 A2990 =
2018-07-16 15:51 METAR KYNG 161951Z 20010KT 10SM BKN048TCU BKN250 32/20 A2991 RMK AO2 SLP117 TCU
                 N-NE CB DSNT S T03220200 =
2018-07-16 14:51 METAR KYNG 161851Z 17010KT 10SM BKN048TCU BKN250 32/21 A2993 RMK AO2 SLP125 TCU
                 NE-E AND S T03220206 =
2018-07-16 13:51 METAR KYNG 161751Z VRB06KT 10SM SCT045 BKN150 BKN250 32/20 A2996 RMK AO2 SLP134
                 T03170200 10322 20228 58014 =
2018-07-16 12:51 METAR KYNG 161651Z 19009KT 10SM SCT037TCU BKN150 BKN250 32/21 A2999 RMK AO2
                 SLP144 TCU E T03170211 =
2018-07-16 11:51 METAR KYNG 161551Z 25008KT 10SM SCT026 BKN150 BKN250 30/22 A3000 RMK AO2 SLP149
                 T03000222 =
2018-07-16 10:51 METAR KYNG 161451Z 20004KT 9SM BKN140 OVC250 28/22 A3000 RMK AO2 SLP149
                 T02780222 56004 =
2018-07-16 09:51 METAR KYNG 161351Z 19006KT 10SM BKN140 BKN250 27/22 A3001 RMK AO2 SLP150
                 T02720222 =
2018-07-16 08:51 METAR KYNG 161251Z VRB03KT 10SM BKN130 26/22 A3001 RMK AO2 SLP151 T02560217 =
2018-07-16 07:51 METAR KYNG 161151Z 17005KT 9SM SCT070 BKN250 23/21 A3002 RMK AO2 SLP154
                 T02280211 10228 20194 52006 =
2018-07-16 06:51 METAR KYNG 161051Z 00000KT 7SM FEW050 BKN250 21/20 A3001 RMK AO2 SLP152
                 T02060200 =
2018-07-16 05:51 METAR KYNG 160951Z 14003KT 8SM MIFG SCT250 19/19 A3000 RMK AO2 SLP148 T01940194
                 =
2018-07-16 04:51 METAR KYNG 160851Z 00000KT 10SM FEW250 21/19 A3000 RMK AO2 SLP147 T02060194
                 58003 =
2018-07-16 03:51 METAR KYNG 160751Z 20003KT 10SM CLR 22/21 A3000 RMK AO2 SLP148 T02170206 =
2018-07-16 02:51 METAR KYNG 160651Z 18005KT 10SM CLR 22/21 A3001 RMK AO2 SLP150 T02220206 =

Support USWX by starting your Amazon purchase here.